createdAt,value
2023-04-01T00:01:46.538Z,19.93
2023-04-01T00:04:15.031Z,19.93
2023-04-01T00:06:43.523Z,19.93
2023-04-01T00:09:13.346Z,19.94
2023-04-01T00:11:42.047Z,19.93
2023-04-01T00:14:11.409Z,19.93
2023-04-01T00:16:40.431Z,19.93
2023-04-01T00:19:09.175Z,19.93
2023-04-01T00:21:37.848Z,19.92
2023-04-01T00:24:06.710Z,19.92
2023-04-01T00:26:36.519Z,19.91
2023-04-01T00:29:05.040Z,19.91
2023-04-01T00:31:33.467Z,19.92
2023-04-01T00:34:01.920Z,19.90
2023-04-01T00:36:30.391Z,19.90
2023-04-01T00:39:01.211Z,19.90
2023-04-01T00:41:29.656Z,19.90
2023-04-01T00:44:21.586Z,19.91
2023-04-01T00:46:50.554Z,19.89
2023-04-01T00:49:22.380Z,19.89
2023-04-01T00:51:55.269Z,19.89
2023-04-01T00:54:26.227Z,19.88
2023-04-01T00:56:58.864Z,19.87
2023-04-01T00:59:31.809Z,19.87
2023-04-01T01:02:00.499Z,19.86
2023-04-01T01:04:30.879Z,19.87
2023-04-01T01:07:12.599Z,19.87
2023-04-01T01:09:50.545Z,19.87
2023-04-01T01:12:23.054Z,19.87
2023-04-01T01:15:03.555Z,19.86
2023-04-01T01:17:43.982Z,19.86
2023-04-01T01:20:34.975Z,19.86
2023-04-01T01:23:28.763Z,19.85
2023-04-01T01:26:09.896Z,19.84
2023-04-01T01:28:49.837Z,19.85
2023-04-01T01:31:24.521Z,19.85
2023-04-01T01:34:08.710Z,19.85
2023-04-01T01:36:40.539Z,19.85
2023-04-01T01:39:13.717Z,19.85
2023-04-01T01:41:46.047Z,19.84
2023-04-01T01:44:17.231Z,19.84
2023-04-01T01:46:47.252Z,19.84
2023-04-01T01:49:17.015Z,19.84
2023-04-01T01:51:46.807Z,19.84
2023-04-01T01:54:16.764Z,19.83
2023-04-01T01:56:49.593Z,19.83
2023-04-01T01:59:22.263Z,19.83
2023-04-01T02:01:53.671Z,19.83
2023-04-01T02:04:24.685Z,19.83
2023-04-01T02:06:58.592Z,19.82
2023-04-01T02:09:27.176Z,19.82
2023-04-01T02:11:59.957Z,19.82
2023-04-01T02:14:33.177Z,19.81
2023-04-01T02:17:07.126Z,19.82
2023-04-01T02:19:40.655Z,19.81
2023-04-01T02:22:15.410Z,19.82
2023-04-01T02:24:46.364Z,19.82
2023-04-01T02:27:15.037Z,19.81
2023-04-01T02:29:43.573Z,19.81
2023-04-01T02:32:12.706Z,19.80
2023-04-01T02:34:41.500Z,19.81
2023-04-01T02:37:13.556Z,19.80
2023-04-01T02:39:43.637Z,19.80
2023-04-01T02:42:12.458Z,19.78
2023-04-01T02:44:40.982Z,19.77
2023-04-01T02:47:09.523Z,19.78
2023-04-01T02:49:38.053Z,19.78
2023-04-01T02:52:06.680Z,19.77
2023-04-01T02:54:36.474Z,19.78
2023-04-01T02:57:04.971Z,19.78
2023-04-01T02:59:33.676Z,19.78
2023-04-01T03:02:02.129Z,19.77
2023-04-01T03:04:30.819Z,19.78
2023-04-01T03:06:59.285Z,19.78
2023-04-01T03:09:27.724Z,19.77
2023-04-01T03:11:57.570Z,19.78
2023-04-01T03:14:26.123Z,19.77
2023-04-01T03:16:54.747Z,19.76
2023-04-01T03:19:23.346Z,19.76
2023-04-01T03:21:52.013Z,19.76
2023-04-01T03:24:20.595Z,19.76
2023-04-01T03:26:49.620Z,19.76
2023-04-01T03:29:19.694Z,19.75
2023-04-01T03:31:48.234Z,19.76
2023-04-01T03:34:16.790Z,19.75
2023-04-01T03:36:45.503Z,19.76
2023-04-01T03:39:14.320Z,19.76
2023-04-01T03:41:43.777Z,19.75
2023-04-01T03:44:12.906Z,19.75
2023-04-01T03:46:43.375Z,19.75
2023-04-01T03:49:13.173Z,19.73
2023-04-01T03:51:42.936Z,19.72
2023-04-01T03:54:12.311Z,19.74
2023-04-01T03:56:40.990Z,19.74
2023-04-01T03:59:09.946Z,19.74
2023-04-01T04:01:38.527Z,19.75
2023-04-01T04:04:08.430Z,19.73
2023-04-01T04:06:37.123Z,19.74
2023-04-01T04:09:05.681Z,19.74
2023-04-01T04:11:34.285Z,19.72
2023-04-01T04:14:03.782Z,19.73
2023-04-01T04:16:32.396Z,19.73
2023-04-01T04:19:04.454Z,19.72
2023-04-01T04:21:34.407Z,19.72
2023-04-01T04:24:03.449Z,19.72
2023-04-01T04:26:51.747Z,19.72
2023-04-01T04:29:20.312Z,19.73
2023-04-01T04:31:48.840Z,19.71
2023-04-01T04:34:17.296Z,19.72
2023-04-01T04:36:47.059Z,19.71
2023-04-01T04:39:16.289Z,19.72
2023-04-01T04:41:45.743Z,19.72
2023-04-01T04:44:14.905Z,19.71
2023-04-01T04:46:44.568Z,19.71
2023-04-01T04:49:17.428Z,19.71
2023-04-01T04:51:47.851Z,19.70
2023-04-01T04:54:17.845Z,19.72
2023-04-01T04:56:53.890Z,19.70
2023-04-01T04:59:23.433Z,19.71
2023-04-01T05:02:00.122Z,19.71
2023-04-01T05:04:28.696Z,19.69
2023-04-01T05:06:58.454Z,19.69
2023-04-01T05:09:27.524Z,19.71
2023-04-01T05:11:56.194Z,19.70
2023-04-01T05:14:26.397Z,19.70
2023-04-01T05:17:01.850Z,19.70
2023-04-01T05:19:30.463Z,19.69
2023-04-01T05:22:00.353Z,19.70
2023-04-01T05:24:28.965Z,19.69
2023-04-01T05:26:58.298Z,19.68
2023-04-01T05:29:27.754Z,19.69
2023-04-01T05:32:03.627Z,19.70
2023-04-01T05:34:32.072Z,19.70
2023-04-01T05:37:01.955Z,19.69
2023-04-01T05:39:30.484Z,19.70
2023-04-01T05:41:58.994Z,19.69
2023-04-01T05:44:27.400Z,19.70
2023-04-01T05:47:05.457Z,19.69
2023-04-01T05:49:35.331Z,19.69
2023-04-01T05:52:06.233Z,19.69
2023-04-01T05:54:37.553Z,19.69
2023-04-01T05:57:06.074Z,19.69
2023-04-01T05:59:35.913Z,19.69
2023-04-01T06:02:04.968Z,19.68
2023-04-01T06:04:39.395Z,19.70
2023-04-01T06:07:14.650Z,19.67
2023-04-01T06:09:44.299Z,19.63
2023-04-01T06:12:30.080Z,19.60
2023-04-01T06:15:13.316Z,19.60
2023-04-01T06:17:58.652Z,19.60
2023-04-01T06:20:34.025Z,19.61
2023-04-01T06:23:23.029Z,19.60
2023-04-01T06:26:07.495Z,19.61
2023-04-01T06:29:00.569Z,19.63
2023-04-01T06:31:47.197Z,19.62
2023-04-01T06:34:31.118Z,19.63
2023-04-01T06:37:13.240Z,19.63
2023-04-01T06:40:01.504Z,19.63
2023-04-01T06:42:46.404Z,19.63
2023-04-01T06:45:43.891Z,19.64
2023-04-01T06:49:02.479Z,19.65
2023-04-01T06:51:52.514Z,19.67
2023-04-01T06:54:42.807Z,19.69
2023-04-01T06:57:45.854Z,19.70
2023-04-01T07:00:28.950Z,19.70
2023-04-01T07:03:07.389Z,19.70
2023-04-01T07:05:37.021Z,19.70
2023-04-01T07:08:10.374Z,19.71
2023-04-01T07:10:45.812Z,19.72
2023-04-01T07:13:38.489Z,19.73
2023-04-01T07:16:19.921Z,19.76
2023-04-01T07:18:52.128Z,19.77
2023-04-01T07:21:30.043Z,19.81
2023-04-01T07:24:11.246Z,19.83
2023-04-01T07:26:44.550Z,19.84
2023-04-01T07:29:20.786Z,19.86
2023-04-01T07:32:20.064Z,19.86
2023-04-01T07:35:08.599Z,19.87
2023-04-01T07:37:47.489Z,19.88
2023-04-01T07:40:26.216Z,19.91
2023-04-01T07:43:12.694Z,19.92
2023-04-01T07:45:56.077Z,19.93
2023-04-01T07:48:33.879Z,19.94
2023-04-01T07:51:12.812Z,19.96
2023-04-01T07:53:47.690Z,19.97
2023-04-01T07:56:22.557Z,19.98
2023-04-01T07:58:59.141Z,20.01
2023-04-01T08:01:57.319Z,20.01
2023-04-01T08:04:36.042Z,20.03
2023-04-01T08:07:12.314Z,20.00
2023-04-01T08:09:56.656Z,20.01
2023-04-01T08:13:07.806Z,20.02
2023-04-01T08:16:07.984Z,19.99
2023-04-01T08:18:53.023Z,20.00
2023-04-01T08:21:25.320Z,20.00
2023-04-01T08:23:58.343Z,19.99
2023-04-01T08:26:32.977Z,19.99
2023-04-01T08:29:06.252Z,20.01
2023-04-01T08:31:39.276Z,20.01
2023-04-01T08:34:17.282Z,20.03
2023-04-01T08:36:50.344Z,20.03
2023-04-01T08:39:23.971Z,20.03
2023-04-01T08:42:26.232Z,20.04
2023-04-01T08:45:28.184Z,20.05
2023-04-01T08:48:29.928Z,20.05
2023-04-01T08:51:21.502Z,20.07
2023-04-01T08:54:03.611Z,20.06
2023-04-01T08:56:40.218Z,20.08
2023-04-01T08:59:29.380Z,20.07
2023-04-01T09:02:29.121Z,20.07
2023-04-01T09:05:37.620Z,20.08
2023-04-01T09:08:22.193Z,20.07
2023-04-01T09:11:24.261Z,20.06
2023-04-01T09:14:23.617Z,20.07
2023-04-01T09:17:39.436Z,20.06
2023-04-01T09:20:20.926Z,20.05
2023-04-01T09:23:08.026Z,20.05
2023-04-01T09:25:52.945Z,20.05
2023-04-01T09:28:29.948Z,20.04
2023-04-01T09:31:34.898Z,20.05
2023-04-01T09:34:55.173Z,20.06
2023-04-01T09:37:37.080Z,20.06
2023-04-01T09:40:28.479Z,20.07
2023-04-01T09:43:23.576Z,20.08
2023-04-01T09:46:11.434Z,20.10
2023-04-01T09:49:08.062Z,20.11
2023-04-01T09:51:45.983Z,20.10
2023-04-01T09:54:38.374Z,20.12
2023-04-01T09:57:35.162Z,20.12
2023-04-01T10:00:41.878Z,20.13
2023-04-01T10:03:47.976Z,20.12
2023-04-01T10:06:53.656Z,20.14
2023-04-01T10:10:11.946Z,20.15
2023-04-01T10:12:58.335Z,20.13
2023-04-01T10:15:56.740Z,20.13
2023-04-01T10:18:49.332Z,20.13
2023-04-01T10:21:39.720Z,20.12
2023-04-01T10:24:25.646Z,20.13
2023-04-01T10:27:15.923Z,20.13
2023-04-01T10:30:35.971Z,20.15
2023-04-01T10:34:05.599Z,20.16
2023-04-01T10:36:48.690Z,20.14
2023-04-01T10:40:03.891Z,20.15
2023-04-01T10:43:30.513Z,20.13
2023-04-01T10:46:44.926Z,20.13
2023-04-01T10:49:43.356Z,20.15
2023-04-01T10:52:18.622Z,20.15
2023-04-01T10:55:38.586Z,20.16
2023-04-01T10:58:51.783Z,20.14
2023-04-01T11:02:19.671Z,20.14
2023-04-01T11:06:08.934Z,20.14
2023-04-01T11:09:19.980Z,20.12
2023-04-01T11:12:17.963Z,20.11
2023-04-01T11:15:23.449Z,20.09
2023-04-01T11:18:30.750Z,20.12
2023-04-01T11:21:44.836Z,20.13
2023-04-01T11:24:38.963Z,20.18
2023-04-01T11:27:43.991Z,20.19
2023-04-01T11:30:27.358Z,20.22
2023-04-01T11:33:03.263Z,20.23
2023-04-01T11:35:44.773Z,20.22
2023-04-01T11:38:24.485Z,20.23
2023-04-01T11:41:01.542Z,20.21
2023-04-01T11:44:05.477Z,20.20
2023-04-01T11:47:02.510Z,20.20
2023-04-01T11:49:41.923Z,20.20
2023-04-01T11:52:39.707Z,20.21
2023-04-01T11:55:21.776Z,20.23
2023-04-01T11:58:20.221Z,20.25
2023-04-01T12:00:54.107Z,20.26
2023-04-01T12:03:43.740Z,20.29
2023-04-01T12:06:18.648Z,20.30
2023-04-01T12:08:57.947Z,20.29
2023-04-01T12:11:35.107Z,20.30
2023-04-01T12:14:15.222Z,20.31
2023-04-01T12:16:58.367Z,20.32
2023-04-01T12:19:38.010Z,20.34
2023-04-01T12:22:24.153Z,20.33
2023-04-01T12:25:03.610Z,20.35
2023-04-01T12:27:42.502Z,20.35
2023-04-01T12:30:41.590Z,20.37
2023-04-01T12:33:27.070Z,20.35
2023-04-01T12:36:03.763Z,20.35
2023-04-01T12:38:44.112Z,20.36
2023-04-01T12:41:19.460Z,20.36
2023-04-01T12:44:10.849Z,20.36
2023-04-01T12:46:56.971Z,20.36
2023-04-01T12:49:44.822Z,20.38
2023-04-01T12:52:15.387Z,20.36
2023-04-01T12:55:25.239Z,20.36
2023-04-01T12:58:19.489Z,20.37
2023-04-01T13:01:02.875Z,20.36
2023-04-01T13:03:56.811Z,20.37
2023-04-01T13:06:42.147Z,20.37
2023-04-01T13:09:26.964Z,20.36
2023-04-01T13:12:24.858Z,20.37
2023-04-01T13:15:11.611Z,20.36
2023-04-01T13:17:50.386Z,20.36
2023-04-01T13:20:31.330Z,20.36
2023-04-01T13:23:16.403Z,20.36
2023-04-01T13:26:06.978Z,20.37
2023-04-01T13:28:46.953Z,20.35
2023-04-01T13:31:30.268Z,20.35
2023-04-01T13:34:12.170Z,20.36
2023-04-01T13:36:55.677Z,20.35
2023-04-01T13:39:34.370Z,20.34
2023-04-01T13:42:23.275Z,20.33
2023-04-01T13:44:57.032Z,20.32
2023-04-01T13:47:54.022Z,20.32
2023-04-01T13:50:48.070Z,20.32
2023-04-01T13:53:51.341Z,20.32
2023-04-01T13:56:31.342Z,20.31
2023-04-01T13:59:21.690Z,20.42
2023-04-01T14:01:56.016Z,20.62
2023-04-01T14:04:40.415Z,20.88
2023-04-01T14:07:21.133Z,21.11
2023-04-01T14:10:10.209Z,21.43
2023-04-01T14:12:46.487Z,21.68
2023-04-01T14:15:36.540Z,22.06
2023-04-01T14:18:19.852Z,22.30
2023-04-01T14:20:53.707Z,22.50
2023-04-01T14:23:53.704Z,22.65
2023-04-01T14:26:33.978Z,22.72
2023-04-01T14:29:15.299Z,22.81
2023-04-01T14:32:08.570Z,22.92
2023-04-01T14:34:51.828Z,23.07
2023-04-01T14:37:48.865Z,23.17
2023-04-01T14:40:36.380Z,23.28
2023-04-01T14:43:38.875Z,23.31
2023-04-01T14:46:18.517Z,23.40
2023-04-01T14:49:00.068Z,23.41
2023-04-01T14:51:33.842Z,23.51
2023-04-01T14:54:07.943Z,23.57
2023-04-01T14:56:41.511Z,23.59
2023-04-01T14:59:28.077Z,23.66
2023-04-01T15:02:03.429Z,23.70
2023-04-01T15:04:45.371Z,23.72
2023-04-01T15:07:29.615Z,23.76
2023-04-01T15:10:08.838Z,23.80
2023-04-01T15:12:45.766Z,23.86
2023-04-01T15:15:27.847Z,23.86
2023-04-01T15:18:06.163Z,23.85
2023-04-01T15:20:55.237Z,23.93
2023-04-01T15:23:36.687Z,23.95
2023-04-01T15:26:24.795Z,23.96
2023-04-01T15:29:08.544Z,23.99
2023-04-01T15:31:44.491Z,24.04
2023-04-01T15:34:38.773Z,24.04
2023-04-01T15:37:15.673Z,24.03
2023-04-01T15:39:56.519Z,24.09
2023-04-01T15:42:36.825Z,24.16
2023-04-01T15:45:18.696Z,24.15
2023-04-01T15:48:01.035Z,24.14
2023-04-01T15:50:56.754Z,24.22
2023-04-01T15:53:36.545Z,24.31
2023-04-01T15:56:20.550Z,24.26
2023-04-01T15:58:58.623Z,24.26
2023-04-01T16:01:37.249Z,24.20
2023-04-01T16:04:31.893Z,24.18
2023-04-01T16:07:11.904Z,24.09
2023-04-01T16:09:45.097Z,23.98
2023-04-01T16:12:20.220Z,23.75
2023-04-01T16:15:04.182Z,23.54
2023-04-01T16:17:58.714Z,23.30
2023-04-01T16:20:47.425Z,23.11
2023-04-01T16:23:22.497Z,22.91
2023-04-01T16:25:58.768Z,22.78
2023-04-01T16:28:33.172Z,22.59
2023-04-01T16:31:08.315Z,22.46
2023-04-01T16:33:43.757Z,22.35
2023-04-01T16:36:23.766Z,22.23
2023-04-01T16:39:01.308Z,22.15
2023-04-01T16:41:35.021Z,22.08
2023-04-01T16:44:16.071Z,22.01
2023-04-01T16:46:48.142Z,21.92
2023-04-01T16:49:31.102Z,21.82
2023-04-01T16:52:15.996Z,21.76
2023-04-01T16:54:49.918Z,21.70
2023-04-01T16:57:22.315Z,21.66
2023-04-01T16:59:59.804Z,21.59
2023-04-01T17:02:31.311Z,21.55
2023-04-01T17:05:03.039Z,21.52
2023-04-01T17:07:45.003Z,21.50
2023-04-01T17:10:30.802Z,21.49
2023-04-01T17:13:16.636Z,21.47
2023-04-01T17:15:53.086Z,21.44
2023-04-01T17:18:29.914Z,21.41
2023-04-01T17:21:04.632Z,21.37
2023-04-01T17:23:39.571Z,21.33
2023-04-01T17:26:26.175Z,21.29
2023-04-01T17:29:04.051Z,21.26
2023-04-01T17:31:45.712Z,21.24
2023-04-01T17:34:29.347Z,21.21
2023-04-01T17:37:11.186Z,21.20
2023-04-01T17:39:57.084Z,21.17
2023-04-01T17:42:35.863Z,21.15
2023-04-01T17:45:11.996Z,21.14
2023-04-01T17:47:48.597Z,21.12
2023-04-01T17:50:25.103Z,21.10
2023-04-01T17:53:04.567Z,21.07
2023-04-01T17:55:49.550Z,21.06
2023-04-01T17:58:21.652Z,21.04
2023-04-01T18:01:04.733Z,21.03
2023-04-01T18:03:57.095Z,21.01
2023-04-01T18:06:37.168Z,20.99
2023-04-01T18:09:19.885Z,20.96
2023-04-01T18:12:01.410Z,20.94
2023-04-01T18:15:03.199Z,20.92
2023-04-01T18:17:44.700Z,20.90
2023-04-01T18:20:33.555Z,20.87
2023-04-01T18:23:08.474Z,20.85
2023-04-01T18:25:41.744Z,20.81
2023-04-01T18:28:34.846Z,20.80
2023-04-01T18:31:10.976Z,20.77
2023-04-01T18:33:50.059Z,20.75
2023-04-01T18:36:26.065Z,20.74
2023-04-01T18:38:58.717Z,20.72
2023-04-01T18:41:35.533Z,20.70
2023-04-01T18:44:28.704Z,20.66
2023-04-01T18:47:07.242Z,20.66
2023-04-01T18:49:45.524Z,20.64
2023-04-01T18:52:21.633Z,20.63
2023-04-01T18:55:09.821Z,20.63
2023-04-01T18:57:44.259Z,20.61
2023-04-01T19:00:23.120Z,20.57
2023-04-01T19:03:00.103Z,20.58
2023-04-01T19:05:33.922Z,20.61
2023-04-01T19:08:20.439Z,20.61
2023-04-01T19:11:01.811Z,20.61
2023-04-01T19:13:38.886Z,20.65
2023-04-01T19:16:22.877Z,20.65
2023-04-01T19:19:09.683Z,20.66
2023-04-01T19:21:42.010Z,20.68
2023-04-01T19:24:35.537Z,20.69
2023-04-01T19:27:12.883Z,20.70
2023-04-01T19:29:54.851Z,20.71
2023-04-01T19:32:37.572Z,20.74
2023-04-01T19:35:19.031Z,20.76
2023-04-01T19:37:53.182Z,20.78
2023-04-01T19:40:43.267Z,20.78
2023-04-01T19:43:20.542Z,20.77
2023-04-01T19:45:57.052Z,20.76
2023-04-01T19:48:46.650Z,20.79
2023-04-01T19:51:23.041Z,20.77
2023-04-01T19:53:58.504Z,20.77
2023-04-01T19:56:35.854Z,20.76
2023-04-01T19:59:09.995Z,20.77
2023-04-01T20:01:46.402Z,20.77
2023-04-01T20:04:19.177Z,20.77
2023-04-01T20:06:57.781Z,20.77
2023-04-01T20:09:50.530Z,20.77
2023-04-01T20:12:31.830Z,20.77
2023-04-01T20:15:03.052Z,20.77
2023-04-01T20:17:40.963Z,20.76
2023-04-01T20:20:23.339Z,20.78
2023-04-01T20:23:07.689Z,20.77
2023-04-01T20:25:45.688Z,20.77
2023-04-01T20:28:22.261Z,20.76
2023-04-01T20:31:02.503Z,20.76
2023-04-01T20:33:43.270Z,20.77
2023-04-01T20:36:23.564Z,20.76
2023-04-01T20:39:21.232Z,20.76
2023-04-01T20:42:02.777Z,20.77
2023-04-01T20:44:42.899Z,20.76
2023-04-01T20:47:18.946Z,20.76
2023-04-01T20:50:00.156Z,20.75
2023-04-01T20:52:39.940Z,20.75
2023-04-01T20:55:56.217Z,20.75
2023-04-01T20:58:35.871Z,20.70
2023-04-01T21:01:15.271Z,20.73
2023-04-01T21:03:51.083Z,20.74
2023-04-01T21:07:02.005Z,20.72
2023-04-01T21:09:43.819Z,20.71
2023-04-01T21:12:23.976Z,20.70
2023-04-01T21:14:59.585Z,20.70
2023-04-01T21:17:40.694Z,20.69
2023-04-01T21:20:30.722Z,20.66
2023-04-01T21:23:25.626Z,20.64
2023-04-01T21:26:13.709Z,20.60
2023-04-01T21:28:55.335Z,20.58
2023-04-01T21:31:37.987Z,20.55
2023-04-01T21:34:30.277Z,20.54
2023-04-01T21:37:15.787Z,20.51
2023-04-01T21:40:04.628Z,20.49
2023-04-01T21:42:45.757Z,20.46
2023-04-01T21:45:46.670Z,20.45
2023-04-01T21:48:54.751Z,20.42
2023-04-01T21:51:45.841Z,20.41
2023-04-01T21:55:08.424Z,20.39
2023-04-01T21:58:09.318Z,20.38
2023-04-01T22:00:40.249Z,20.37
2023-04-01T22:03:40.711Z,20.36
2023-04-01T22:06:21.114Z,20.34
2023-04-01T22:09:04.096Z,20.32
2023-04-01T22:11:45.635Z,20.31
2023-04-01T22:14:21.210Z,20.30
2023-04-01T22:16:55.649Z,20.29
2023-04-01T22:19:32.131Z,20.28
2023-04-01T22:22:06.233Z,20.27
2023-04-01T22:24:39.401Z,20.26
2023-04-01T22:27:13.861Z,20.25
2023-04-01T22:29:53.247Z,20.25
2023-04-01T22:32:27.981Z,20.25
2023-04-01T22:35:05.101Z,20.23
2023-04-01T22:37:42.748Z,20.24
2023-04-01T22:40:24.454Z,20.23
2023-04-01T22:42:58.786Z,20.22
2023-04-01T22:45:45.070Z,20.22
2023-04-01T22:48:17.709Z,20.22
2023-04-01T22:50:55.810Z,20.21
2023-04-01T22:53:36.271Z,20.20
2023-04-01T22:56:09.016Z,20.20
2023-04-01T22:58:43.024Z,20.20
2023-04-01T23:01:18.535Z,20.19
2023-04-01T23:03:51.005Z,20.18
2023-04-01T23:06:23.088Z,20.18
2023-04-01T23:09:09.867Z,20.17
2023-04-01T23:11:46.447Z,20.17
2023-04-01T23:14:45.109Z,20.17
2023-04-01T23:17:33.194Z,20.17
2023-04-01T23:20:11.730Z,20.16
2023-04-01T23:22:48.466Z,20.15
2023-04-01T23:25:27.042Z,20.15
2023-04-01T23:28:01.726Z,20.13
2023-04-01T23:30:52.445Z,20.13
2023-04-01T23:33:29.036Z,20.13
2023-04-01T23:36:06.096Z,20.13
2023-04-01T23:38:37.778Z,20.12
2023-04-01T23:41:07.726Z,20.12
2023-04-01T23:43:40.417Z,20.12
2023-04-01T23:46:09.759Z,20.11
2023-04-01T23:48:41.943Z,20.10
2023-04-01T23:51:16.425Z,20.10
2023-04-01T23:53:48.455Z,20.08
2023-04-01T23:56:18.869Z,20.10
2023-04-01T23:58:53.288Z,20.10
